createdAt,value
2019-02-27T00:00:24.910Z,1011.45
2019-02-27T00:01:24.824Z,1011.43
2019-02-27T00:02:25.491Z,1011.50
2019-02-27T00:03:28.794Z,1011.48
2019-02-27T00:04:24.753Z,1011.40
2019-02-27T00:05:24.839Z,1011.42
2019-02-27T00:06:24.804Z,1011.40
2019-02-27T00:07:24.761Z,1011.38
2019-02-27T00:08:27.042Z,1011.36
2019-02-27T00:09:24.787Z,1011.35
2019-02-27T00:10:24.654Z,1011.31
2019-02-27T00:11:24.675Z,1011.28
2019-02-27T00:12:24.599Z,1011.24
2019-02-27T00:13:25.421Z,1011.21
2019-02-27T00:14:24.680Z,1011.19
2019-02-27T00:15:24.595Z,1011.19
2019-02-27T00:16:24.617Z,1011.23
2019-02-27T00:17:24.580Z,1011.24
2019-02-27T00:18:24.548Z,1011.26
2019-02-27T00:19:24.513Z,1011.31
2019-02-27T00:20:24.514Z,1011.29
2019-02-27T00:23:45.335Z,1011.20
2019-02-27T00:24:43.529Z,1011.20
2019-02-27T00:25:44.500Z,1011.12
2019-02-27T00:26:43.592Z,1011.16
2019-02-27T00:27:48.679Z,1011.11
2019-02-27T00:28:43.574Z,1011.07
2019-02-27T00:29:46.460Z,1011.01
2019-02-27T00:30:43.554Z,1010.98
2019-02-27T00:31:46.072Z,1010.94
2019-02-27T00:32:43.379Z,1010.90
2019-02-27T00:33:43.684Z,1010.92
2019-02-27T00:34:43.544Z,1010.95
2019-02-27T00:35:44.516Z,1010.94
2019-02-27T00:36:45.168Z,1010.95
2019-02-27T00:37:43.275Z,1010.91
2019-02-27T00:38:43.423Z,1010.87
2019-02-27T00:39:43.343Z,1010.88
2019-02-27T00:40:43.306Z,1010.87
2019-02-27T00:41:46.006Z,1010.80
2019-02-27T00:42:43.236Z,1010.78
2019-02-27T00:43:43.238Z,1010.76
2019-02-27T00:44:44.994Z,1010.74
2019-02-27T00:45:43.238Z,1010.71
2019-02-27T00:46:44.035Z,1010.65
2019-02-27T00:47:43.324Z,1010.61
2019-02-27T00:48:54.031Z,1010.54
2019-02-27T00:49:43.385Z,1010.48
2019-02-27T00:50:43.913Z,1010.58
2019-02-27T00:51:44.892Z,1010.52
2019-02-27T00:52:43.215Z,1010.55
2019-02-27T00:53:43.993Z,1010.55
2019-02-27T00:54:43.178Z,1010.56
2019-02-27T00:55:43.021Z,1010.55
2019-02-27T00:56:45.063Z,1010.54
2019-02-27T00:57:42.914Z,1010.60
2019-02-27T00:58:43.310Z,1010.56
2019-02-27T00:59:43.004Z,1010.54
2019-02-27T01:00:43.043Z,1010.49
2019-02-27T01:01:47.214Z,1010.47
2019-02-27T01:02:42.976Z,1010.43
2019-02-27T01:03:42.904Z,1010.42
2019-02-27T01:04:42.941Z,1010.39
2019-02-27T01:05:43.340Z,1010.37
2019-02-27T01:06:45.009Z,1010.38
2019-02-27T01:07:42.863Z,1010.35
2019-02-27T01:08:42.882Z,1010.29
2019-02-27T01:09:44.517Z,1010.25
2019-02-27T01:10:45.258Z,1010.19
2019-02-27T01:11:42.712Z,1010.15
2019-02-27T01:12:42.864Z,1010.13
2019-02-27T01:13:42.638Z,1010.14
2019-02-27T01:16:04.256Z,1010.02
2019-02-27T01:17:03.508Z,1010.06
2019-02-27T01:18:58.013Z,1010.04
2019-02-27T01:19:56.472Z,1010.10
2019-02-27T01:20:56.428Z,1010.04
2019-02-27T01:21:56.406Z,1010.00
2019-02-27T01:22:58.068Z,1009.97
2019-02-27T01:23:58.408Z,1010.00
2019-02-27T01:24:56.296Z,1009.94
2019-02-27T01:25:57.161Z,1009.94
2019-02-27T01:26:58.239Z,1009.91
2019-02-27T01:27:58.106Z,1009.93
2019-02-27T01:28:56.261Z,1009.90
2019-02-27T01:29:56.239Z,1009.83
2019-02-27T01:30:56.312Z,1009.83
2019-02-27T01:31:57.631Z,1009.85
2019-02-27T01:32:56.293Z,1009.84
2019-02-27T01:33:58.079Z,1009.84
2019-02-27T01:34:56.295Z,1009.78
2019-02-27T01:35:56.244Z,1009.80
2019-02-27T01:36:58.075Z,1009.79
2019-02-27T01:37:58.999Z,1009.71
2019-02-27T01:38:56.220Z,1009.71
2019-02-27T01:39:56.862Z,1009.71
2019-02-27T01:40:56.214Z,1009.67
2019-02-27T01:41:57.981Z,1009.60
2019-02-27T01:42:57.591Z,1009.53
2019-02-27T01:43:56.294Z,1009.55
2019-02-27T01:44:56.186Z,1009.54
2019-02-27T01:45:56.031Z,1009.46
2019-02-27T01:46:56.163Z,1009.48
2019-02-27T01:47:56.102Z,1009.45
2019-02-27T01:48:56.361Z,1009.40
2019-02-27T01:49:56.023Z,1009.36
2019-02-27T01:50:57.647Z,1009.35
2019-02-27T01:51:55.984Z,1009.34
2019-02-27T01:52:56.717Z,1009.26
2019-02-27T01:53:55.859Z,1009.24
2019-02-27T01:54:56.005Z,1009.21
2019-02-27T01:55:56.399Z,1009.22
2019-02-27T01:56:55.806Z,1009.22
2019-02-27T01:57:55.846Z,1009.25
2019-02-27T01:58:56.761Z,1009.26
2019-02-27T01:59:55.764Z,1009.21
2019-02-27T02:00:56.849Z,1009.19
2019-02-27T02:01:55.979Z,1009.14
2019-02-27T02:02:55.784Z,1009.11
2019-02-27T02:03:55.696Z,1009.12
2019-02-27T02:04:56.820Z,1009.04
2019-02-27T02:05:58.779Z,1009.03
2019-02-27T02:06:55.669Z,1009.05
2019-02-27T02:07:55.650Z,1009.01
2019-02-27T02:08:55.487Z,1009.02
2019-02-27T02:09:55.839Z,1009.02
2019-02-27T02:10:55.578Z,1008.97
2019-02-27T02:11:55.553Z,1008.89
2019-02-27T02:12:55.507Z,1008.86
2019-02-27T02:13:55.456Z,1008.82
2019-02-27T02:14:55.724Z,1008.79
2019-02-27T02:15:55.558Z,1008.70
2019-02-27T02:16:57.166Z,1008.67
2019-02-27T02:17:55.348Z,1008.67
2019-02-27T02:18:55.513Z,1008.56
2019-02-27T02:19:55.435Z,1008.48
2019-02-27T02:20:55.359Z,1008.48
2019-02-27T02:21:55.474Z,1008.54
2019-02-27T02:22:55.387Z,1008.48
2019-02-27T02:23:56.245Z,1008.49
2019-02-27T02:24:56.085Z,1008.40
2019-02-27T02:25:55.314Z,1008.38
2019-02-27T02:26:57.233Z,1008.41
2019-02-27T02:27:55.245Z,1008.33
2019-02-27T02:28:56.119Z,1008.28
2019-02-27T02:29:55.319Z,1008.32
2019-02-27T02:30:55.281Z,1008.28
2019-02-27T02:31:56.149Z,1008.16
2019-02-27T02:32:55.075Z,1008.15
2019-02-27T02:33:55.165Z,1008.15
2019-02-27T02:34:58.137Z,1008.09
2019-02-27T02:36:24.976Z,1008.19
2019-02-27T02:37:01.228Z,1008.14
2019-02-27T02:37:55.017Z,1008.14
2019-02-27T02:38:55.174Z,1008.11
2019-02-27T02:39:56.889Z,1008.14
2019-02-27T02:40:55.550Z,1008.07
2019-02-27T02:41:54.931Z,1008.02
2019-02-27T02:42:54.927Z,1008.05
2019-02-27T02:43:54.886Z,1007.92
2019-02-27T02:44:57.679Z,1007.90
2019-02-27T02:45:55.009Z,1007.92
2019-02-27T02:46:54.995Z,1007.95
2019-02-27T02:47:56.024Z,1007.91
2019-02-27T02:48:54.755Z,1007.83
2019-02-27T02:49:54.972Z,1007.81
2019-02-27T02:50:55.090Z,1007.81
2019-02-27T02:51:54.843Z,1007.75
2019-02-27T02:52:54.807Z,1007.78
2019-02-27T02:54:00.693Z,1007.72
2019-02-27T02:54:54.765Z,1007.72
2019-02-27T02:55:54.862Z,1007.66
2019-02-27T02:57:00.121Z,1007.67
2019-02-27T02:57:54.808Z,1007.67
2019-02-27T02:58:54.677Z,1007.64
2019-02-27T03:00:54.786Z,1007.60
2019-02-27T03:02:05.758Z,1007.54
2019-02-27T03:03:00.258Z,1007.49
2019-02-27T03:03:55.175Z,1007.42
2019-02-27T03:04:54.660Z,1007.39
2019-02-27T03:05:58.599Z,1007.31
2019-02-27T03:06:54.460Z,1007.25
2019-02-27T03:07:55.100Z,1007.22
2019-02-27T03:08:55.252Z,1007.15
2019-02-27T03:09:57.074Z,1007.15
2019-02-27T03:10:56.108Z,1007.13
2019-02-27T03:11:55.648Z,1007.08
2019-02-27T03:12:54.797Z,1007.07
2019-02-27T03:13:54.601Z,1007.05
2019-02-27T03:14:54.641Z,1007.03
2019-02-27T03:15:54.643Z,1007.00
2019-02-27T03:16:56.139Z,1007.01
2019-02-27T03:17:55.219Z,1007.01
2019-02-27T03:19:05.109Z,1007.01
2019-02-27T03:19:56.667Z,1007.01
2019-02-27T03:22:03.089Z,1006.95
2019-02-27T03:22:54.306Z,1006.93
2019-02-27T03:23:55.434Z,1006.88
2019-02-27T03:24:54.515Z,1006.83
2019-02-27T03:25:54.341Z,1006.86
2019-02-27T03:26:54.232Z,1006.83
2019-02-27T03:27:54.467Z,1006.73
2019-02-27T03:28:54.350Z,1006.73
2019-02-27T03:29:54.191Z,1006.71
2019-02-27T03:30:54.154Z,1006.65
2019-02-27T03:31:59.955Z,1006.66
2019-02-27T03:32:54.048Z,1006.65
2019-02-27T03:34:05.009Z,1006.60
2019-02-27T03:35:08.744Z,1006.52
2019-02-27T03:35:54.061Z,1006.52
2019-02-27T03:36:54.648Z,1006.52
2019-02-27T03:37:54.034Z,1006.49
2019-02-27T03:38:55.850Z,1006.44
2019-02-27T03:39:54.057Z,1006.43
2019-02-27T03:40:53.950Z,1006.45
2019-02-27T03:41:58.518Z,1006.42
2019-02-27T03:42:54.729Z,1006.41
2019-02-27T03:43:53.913Z,1006.35
2019-02-27T03:44:57.194Z,1006.32
2019-02-27T03:45:54.624Z,1006.28
2019-02-27T03:46:53.993Z,1006.25
2019-02-27T03:47:54.730Z,1006.25
2019-02-27T03:48:55.689Z,1006.22
2019-02-27T03:49:54.573Z,1006.15
2019-02-27T03:50:54.600Z,1006.05
2019-02-27T03:51:59.676Z,1006.06
2019-02-27T03:52:53.747Z,1005.92
2019-02-27T03:53:54.690Z,1005.89
2019-02-27T03:54:58.141Z,1005.86
2019-02-27T03:55:58.648Z,1005.87
2019-02-27T03:56:53.830Z,1005.82
2019-02-27T03:58:04.945Z,1005.81
2019-02-27T03:58:53.611Z,1005.88
2019-02-27T03:59:56.286Z,1005.75
2019-02-27T04:00:54.062Z,1005.82
2019-02-27T04:01:53.598Z,1005.70
2019-02-27T04:02:53.659Z,1005.61
2019-02-27T04:03:56.180Z,1005.59
2019-02-27T04:04:53.775Z,1005.54
2019-02-27T04:05:53.567Z,1005.49
2019-02-27T04:06:56.262Z,1005.48
2019-02-27T04:07:53.724Z,1005.52
2019-02-27T04:08:53.617Z,1005.49
2019-02-27T04:09:55.407Z,1005.46
2019-02-27T04:10:53.350Z,1005.45
2019-02-27T04:11:53.413Z,1005.38
2019-02-27T04:12:53.382Z,1005.36
2019-02-27T04:13:54.212Z,1005.39
2019-02-27T04:14:53.481Z,1005.36
2019-02-27T04:15:54.364Z,1005.32
2019-02-27T04:16:53.280Z,1005.38
2019-02-27T04:17:53.277Z,1005.31
2019-02-27T04:18:53.303Z,1005.27
2019-02-27T04:19:54.095Z,1005.28
2019-02-27T04:20:53.896Z,1005.23
2019-02-27T04:21:53.249Z,1005.18
2019-02-27T04:22:53.343Z,1005.19
2019-02-27T04:23:53.226Z,1005.10
2019-02-27T04:24:56.787Z,1005.13
2019-02-27T04:25:53.196Z,1005.08
2019-02-27T04:26:53.195Z,1005.12
2019-02-27T04:27:55.474Z,1005.12
2019-02-27T04:28:53.015Z,1005.15
2019-02-27T04:29:52.991Z,1005.09
2019-02-27T04:30:52.979Z,1005.12
2019-02-27T04:31:52.985Z,1005.13
2019-02-27T04:32:53.024Z,1005.16
2019-02-27T04:33:53.023Z,1005.13
2019-02-27T04:34:55.731Z,1005.13
2019-02-27T04:35:53.662Z,1005.10
2019-02-27T04:36:52.881Z,1005.10
2019-02-27T04:38:52.866Z,1005.10
2019-02-27T04:39:52.917Z,1005.12
2019-02-27T04:40:53.017Z,1005.11
2019-02-27T04:41:52.811Z,1005.06
2019-02-27T04:42:52.860Z,1005.02
2019-02-27T04:43:52.996Z,1005.06
2019-02-27T04:44:52.904Z,1005.08
2019-02-27T04:45:53.874Z,1005.04
2019-02-27T04:46:54.865Z,1005.05
2019-02-27T04:47:52.789Z,1004.96
2019-02-27T04:48:52.840Z,1004.96
2019-02-27T04:49:52.714Z,1004.99
2019-02-27T04:50:52.640Z,1004.92
2019-02-27T04:51:52.925Z,1004.85
2019-02-27T04:52:52.735Z,1004.90
2019-02-27T04:53:55.696Z,1004.85
2019-02-27T04:54:54.135Z,1004.86
2019-02-27T04:55:52.891Z,1004.83
2019-02-27T04:56:55.042Z,1004.82
2019-02-27T04:57:54.105Z,1004.74
2019-02-27T04:58:55.263Z,1004.72
2019-02-27T04:59:55.177Z,1004.69
2019-02-27T05:00:52.546Z,1004.63
2019-02-27T05:01:52.644Z,1004.58
2019-02-27T05:02:53.403Z,1004.59
2019-02-27T05:03:53.190Z,1004.54
2019-02-27T05:04:52.629Z,1004.56
2019-02-27T05:05:52.596Z,1004.49
2019-02-27T05:06:52.440Z,1004.51
2019-02-27T05:07:54.280Z,1004.47
2019-02-27T05:08:52.581Z,1004.44
2019-02-27T05:09:54.098Z,1004.40
2019-02-27T05:12:13.520Z,1004.35
2019-02-27T05:13:13.406Z,1004.33
2019-02-27T05:14:17.408Z,1004.25
2019-02-27T05:15:12.699Z,1004.20
2019-02-27T05:16:14.115Z,1004.25
2019-02-27T05:17:12.741Z,1004.23
2019-02-27T05:18:12.727Z,1004.19
2019-02-27T05:19:12.557Z,1004.18
2019-02-27T05:20:12.928Z,1004.19
2019-02-27T05:21:12.613Z,1004.20
2019-02-27T05:22:12.606Z,1004.21
2019-02-27T05:23:13.682Z,1004.19
2019-02-27T05:24:14.348Z,1004.16
2019-02-27T05:25:14.445Z,1004.14
2019-02-27T05:26:12.695Z,1004.13
2019-02-27T05:27:12.625Z,1004.18
2019-02-27T05:28:12.656Z,1004.14
2019-02-27T05:29:12.504Z,1004.17
2019-02-27T05:30:12.870Z,1004.19
2019-02-27T05:31:13.585Z,1004.22
2019-02-27T05:32:12.596Z,1004.24
2019-02-27T05:33:12.555Z,1004.24
2019-02-27T05:34:13.504Z,1004.26
2019-02-27T05:35:12.640Z,1004.29
2019-02-27T05:36:12.489Z,1004.30
2019-02-27T05:37:12.247Z,1004.31
2019-02-27T05:38:12.846Z,1004.35
2019-02-27T05:39:14.897Z,1004.36
2019-02-27T05:40:12.932Z,1004.40
2019-02-27T05:41:13.881Z,1004.42
2019-02-27T05:42:19.114Z,1004.46
2019-02-27T05:43:13.848Z,1004.41
2019-02-27T05:44:12.378Z,1004.39
2019-02-27T05:45:12.186Z,1004.37
2019-02-27T05:46:15.010Z,1004.37
2019-02-27T05:47:16.753Z,1004.33
2019-02-27T05:48:12.274Z,1004.33
2019-02-27T05:49:12.317Z,1004.31
2019-02-27T05:50:12.296Z,1004.31
2019-02-27T05:51:13.968Z,1004.32
2019-02-27T05:52:14.434Z,1004.32
2019-02-27T05:53:12.145Z,1004.30
2019-02-27T05:54:12.094Z,1004.27
2019-02-27T05:55:12.043Z,1004.27
2019-02-27T05:56:16.335Z,1004.26
2019-02-27T05:57:12.052Z,1004.22
2019-02-27T05:58:14.959Z,1004.20
2019-02-27T05:59:12.163Z,1004.16
2019-02-27T06:01:12.861Z,1004.12
2019-02-27T06:02:11.921Z,1004.09
2019-02-27T06:03:11.908Z,1004.08
2019-02-27T06:04:11.967Z,1004.05
2019-02-27T06:05:11.855Z,1004.02
2019-02-27T06:06:12.448Z,1004.01
2019-02-27T06:07:12.008Z,1003.98
2019-02-27T06:08:11.967Z,1003.95
2019-02-27T06:09:11.901Z,1003.88
2019-02-27T06:10:11.793Z,1003.82
2019-02-27T06:11:11.809Z,1003.71
2019-02-27T06:12:11.994Z,1003.68
2019-02-27T06:13:14.747Z,1003.70
2019-02-27T06:14:14.358Z,1003.60
2019-02-27T06:15:11.697Z,1003.51
2019-02-27T06:16:11.748Z,1003.51
2019-02-27T06:17:12.872Z,1003.42
2019-02-27T06:18:11.713Z,1003.41
2019-02-27T06:19:11.727Z,1003.41
2019-02-27T06:20:14.402Z,1003.41
2019-02-27T06:21:13.453Z,1003.39
2019-02-27T06:22:12.317Z,1003.35
2019-02-27T06:23:11.821Z,1003.30
2019-02-27T06:24:12.454Z,1003.26
2019-02-27T06:25:11.530Z,1003.18
2019-02-27T06:26:11.618Z,1003.17
2019-02-27T06:27:11.592Z,1003.12
2019-02-27T06:28:11.499Z,1003.07
2019-02-27T06:30:12.396Z,1003.07
2019-02-27T06:31:13.361Z,1003.07
2019-02-27T06:32:12.347Z,1003.03
2019-02-27T06:33:11.883Z,1003.00
2019-02-27T06:34:11.900Z,1002.96
2019-02-27T06:35:12.039Z,1002.96
2019-02-27T06:36:13.053Z,1002.88
2019-02-27T06:37:15.340Z,1002.88
2019-02-27T06:38:11.369Z,1002.82
2019-02-27T06:39:11.353Z,1002.83
2019-02-27T06:40:11.215Z,1002.82
2019-02-27T06:41:17.945Z,1002.82
2019-02-27T06:42:14.005Z,1002.83
2019-02-27T06:43:11.860Z,1002.70
2019-02-27T06:44:11.362Z,1002.70
2019-02-27T06:45:12.651Z,1002.61
2019-02-27T06:46:13.463Z,1002.58
2019-02-27T06:47:14.207Z,1002.55
2019-02-27T06:48:15.009Z,1002.59
2019-02-27T06:49:12.052Z,1002.61
2019-02-27T06:50:16.109Z,1002.59
2019-02-27T06:51:11.037Z,1002.59
2019-02-27T06:52:11.062Z,1002.52
2019-02-27T06:53:15.625Z,1002.50
2019-02-27T06:54:11.705Z,1002.47
2019-02-27T06:55:13.050Z,1002.35
2019-02-27T06:56:11.601Z,1002.27
2019-02-27T06:57:12.619Z,1002.20
2019-02-27T06:58:14.597Z,1002.18
2019-02-27T06:59:12.124Z,1002.20
2019-02-27T07:00:11.675Z,1002.16
2019-02-27T07:02:10.923Z,1002.12
2019-02-27T07:03:12.190Z,1002.16
2019-02-27T07:04:11.526Z,1002.16
2019-02-27T07:05:14.941Z,1002.16
2019-02-27T07:06:12.708Z,1002.18
2019-02-27T07:07:11.055Z,1002.13
2019-02-27T07:08:11.453Z,1002.12
2019-02-27T07:09:11.623Z,1002.03
2019-02-27T07:10:11.799Z,1001.94
2019-02-27T07:11:16.051Z,1001.95
2019-02-27T07:12:15.844Z,1001.97
2019-02-27T07:13:14.942Z,1002.10
2019-02-27T07:14:11.966Z,1002.18
2019-02-27T07:15:12.794Z,1002.01
2019-02-27T07:16:11.391Z,1001.93
2019-02-27T07:17:13.548Z,1001.87
2019-02-27T07:18:11.939Z,1001.84
2019-02-27T07:19:15.701Z,1001.85
2019-02-27T07:20:14.119Z,1001.78
2019-02-27T07:22:13.804Z,1001.69
2019-02-27T07:24:11.097Z,1001.66
2019-02-27T07:25:11.396Z,1001.60
2019-02-27T07:26:15.837Z,1001.68
2019-02-27T07:27:11.450Z,1001.68
2019-02-27T07:28:10.498Z,1001.70
2019-02-27T07:29:21.005Z,1001.60
2019-02-27T07:30:11.469Z,1001.61
2019-02-27T07:31:12.438Z,1001.54
2019-02-27T07:32:17.053Z,1001.50
2019-02-27T07:33:10.989Z,1001.43
2019-02-27T07:34:14.193Z,1001.36
2019-02-27T07:35:17.340Z,1001.35
2019-02-27T07:36:15.009Z,1001.28
2019-02-27T07:38:11.330Z,1001.19
2019-02-27T07:39:10.372Z,1001.18
2019-02-27T07:40:10.412Z,1001.16
2019-02-27T07:41:10.229Z,1001.16
2019-02-27T07:42:12.196Z,1001.28
2019-02-27T07:44:10.890Z,1001.32
2019-02-27T07:45:10.731Z,1001.29
2019-02-27T07:46:11.366Z,1001.26
2019-02-27T07:47:11.083Z,1001.23
2019-02-27T07:48:10.216Z,1001.22
2019-02-27T07:50:10.952Z,1001.20
2019-02-27T07:51:10.918Z,1001.15
2019-02-27T07:52:10.819Z,1001.10
2019-02-27T07:53:10.151Z,1001.13
2019-02-27T07:54:10.298Z,1001.05
2019-02-27T07:55:20.738Z,1001.08
2019-02-27T07:56:10.149Z,1001.06
2019-02-27T07:57:10.662Z,1001.05
2019-02-27T07:58:12.978Z,1001.08
2019-02-27T07:59:11.981Z,1001.05
2019-02-27T08:00:14.981Z,1001.04
2019-02-27T08:01:10.068Z,1001.09
2019-02-27T08:02:10.028Z,1001.08
2019-02-27T08:03:12.929Z,1001.04
2019-02-27T08:04:10.875Z,1001.06
2019-02-27T08:05:09.781Z,1001.06
2019-02-27T08:06:10.675Z,1001.03
2019-02-27T08:07:09.979Z,1000.96
2019-02-27T08:08:10.696Z,1001.00
2019-02-27T08:09:16.380Z,1001.09
2019-02-27T08:10:11.418Z,1001.01
2019-02-27T08:11:13.658Z,1000.95
2019-02-27T08:12:09.981Z,1000.98
2019-02-27T08:13:10.905Z,1001.03
2019-02-27T08:14:14.267Z,1001.01
2019-02-27T08:15:10.851Z,1001.05
2019-02-27T08:16:10.564Z,1001.06
2019-02-27T08:17:17.701Z,1001.05
2019-02-27T08:18:29.535Z,1001.07
2019-02-27T08:19:11.615Z,1001.00
2019-02-27T08:20:10.343Z,1000.97
2019-02-27T08:21:09.773Z,1000.94
2019-02-27T08:22:09.731Z,1000.90
2019-02-27T08:23:09.770Z,1000.85
2019-02-27T08:24:09.965Z,1000.84
2019-02-27T08:25:09.519Z,1000.84
2019-02-27T08:26:10.663Z,1000.81
2019-02-27T08:27:10.346Z,1000.92
2019-02-27T08:28:09.474Z,1000.95
2019-02-27T08:29:10.168Z,1000.96
2019-02-27T08:30:11.442Z,1001.00
2019-02-27T08:31:10.153Z,1001.01
2019-02-27T08:32:09.532Z,1000.95
2019-02-27T08:33:09.944Z,1000.94
2019-02-27T08:34:09.596Z,1000.94
2019-02-27T08:35:14.280Z,1000.93
2019-02-27T08:36:16.049Z,1000.85
2019-02-27T08:37:11.022Z,1000.92
2019-02-27T08:38:11.080Z,1000.86
2019-02-27T08:39:09.307Z,1000.83
2019-02-27T08:40:09.382Z,1000.82
2019-02-27T08:41:10.061Z,1000.81
2019-02-27T08:42:09.702Z,1000.81
2019-02-27T08:43:10.988Z,1000.88
2019-02-27T08:44:12.330Z,1000.80
2019-02-27T08:45:18.827Z,1000.80
2019-02-27T08:46:16.538Z,1000.82
2019-02-27T08:47:30.438Z,1000.81
2019-02-27T08:48:22.001Z,1000.74
2019-02-27T08:49:09.956Z,1000.73
2019-02-27T08:50:10.428Z,1000.70
2019-02-27T08:51:11.481Z,1000.67
2019-02-27T08:52:13.139Z,1000.69
2019-02-27T08:53:12.638Z,1000.69
2019-02-27T08:56:12.189Z,1000.70
2019-02-27T08:58:09.076Z,1000.67
2019-02-27T08:59:09.051Z,1000.61
2019-02-27T09:00:14.196Z,1000.59
2019-02-27T09:01:08.918Z,1000.55
2019-02-27T09:02:21.800Z,1000.55
2019-02-27T09:03:23.419Z,1000.49
2019-02-27T09:04:11.294Z,1000.45
2019-02-27T09:05:09.177Z,1000.40
2019-02-27T09:06:09.335Z,1000.36
2019-02-27T09:07:11.549Z,1000.34
2019-02-27T09:08:12.366Z,1000.28
2019-02-27T09:09:08.980Z,1000.20
2019-02-27T09:12:13.406Z,1000.11
2019-02-27T09:13:13.431Z,1000.00
2019-02-27T09:14:08.873Z,999.98
2019-02-27T09:15:09.305Z,999.94
2019-02-27T09:16:09.739Z,999.91
2019-02-27T09:17:08.799Z,999.89
2019-02-27T09:18:08.800Z,999.89
2019-02-27T09:19:10.140Z,999.89
2019-02-27T09:20:08.766Z,999.88
2019-02-27T09:21:08.627Z,999.89
2019-02-27T09:22:11.850Z,999.85
2019-02-27T09:24:09.209Z,999.84
2019-02-27T09:25:13.303Z,999.87
2019-02-27T09:26:09.643Z,999.82
2019-02-27T09:27:08.520Z,999.73
2019-02-27T09:28:09.301Z,999.69
2019-02-27T09:29:19.474Z,999.66
2019-02-27T09:30:11.597Z,999.62
2019-02-27T09:31:14.941Z,999.61
2019-02-27T09:32:30.595Z,999.60
2019-02-27T09:33:11.944Z,999.55
2019-02-27T09:34:09.039Z,999.46
2019-02-27T09:35:09.007Z,999.48
2019-02-27T09:36:10.335Z,999.47
2019-02-27T09:37:08.551Z,999.47
2019-02-27T09:38:08.750Z,999.47
2019-02-27T09:39:10.011Z,999.49
2019-02-27T09:40:08.587Z,999.48
2019-02-27T09:42:29.254Z,999.48
2019-02-27T09:43:29.373Z,999.51
2019-02-27T09:45:22.271Z,999.48
2019-02-27T09:46:22.069Z,999.43
2019-02-27T09:47:23.188Z,999.43
2019-02-27T09:49:22.000Z,999.40
2019-02-27T09:50:22.107Z,999.35
2019-02-27T09:51:22.185Z,999.33
2019-02-27T09:52:27.855Z,999.27
2019-02-27T09:53:22.198Z,999.25
2019-02-27T09:54:28.617Z,999.20
2019-02-27T09:55:22.265Z,999.23
2019-02-27T09:56:36.784Z,999.24
2019-02-27T09:57:24.891Z,999.26
2019-02-27T09:58:22.710Z,999.26
2019-02-27T09:59:22.720Z,999.21
2019-02-27T10:00:28.727Z,999.26
2019-02-27T10:01:43.412Z,999.24
2019-02-27T10:02:22.680Z,999.23
2019-02-27T10:03:23.241Z,999.26
2019-02-27T10:04:29.739Z,999.27
2019-02-27T10:05:26.123Z,999.24
2019-02-27T10:06:23.909Z,999.17
2019-02-27T10:07:24.217Z,999.22
2019-02-27T10:08:30.827Z,999.19
2019-02-27T10:09:21.994Z,999.15
2019-02-27T10:10:23.728Z,999.18
2019-02-27T10:11:22.338Z,999.15
2019-02-27T10:12:27.074Z,999.17
2019-02-27T10:13:22.522Z,999.16
2019-02-27T10:14:25.336Z,999.12
2019-02-27T10:17:21.737Z,999.03
2019-02-27T10:18:22.173Z,999.04
2019-02-27T10:19:22.751Z,998.99
2019-02-27T10:20:29.314Z,999.00
2019-02-27T10:21:23.324Z,998.90
2019-02-27T10:22:24.538Z,998.86
2019-02-27T10:23:30.554Z,998.89
2019-02-27T10:24:21.557Z,998.91
2019-02-27T10:25:22.530Z,998.89
2019-02-27T10:26:25.702Z,998.89
2019-02-27T10:27:21.590Z,998.86
2019-02-27T10:28:21.427Z,998.85
2019-02-27T10:29:25.313Z,998.83
2019-02-27T10:30:27.398Z,998.80
2019-02-27T10:31:25.959Z,998.77
2019-02-27T10:32:22.657Z,998.73
2019-02-27T10:33:21.721Z,998.72
2019-02-27T10:34:24.023Z,998.68
2019-02-27T10:35:22.919Z,998.66
2019-02-27T10:36:39.045Z,998.70
2019-02-27T10:37:22.528Z,998.67
2019-02-27T10:38:27.452Z,998.64
2019-02-27T10:39:37.152Z,998.62
2019-02-27T10:40:21.775Z,998.59
2019-02-27T10:41:42.520Z,998.56
2019-02-27T10:42:22.363Z,998.53
2019-02-27T10:43:21.585Z,998.50
2019-02-27T10:44:22.168Z,998.44
2019-02-27T10:45:21.455Z,998.39
2019-02-27T10:46:23.466Z,998.35
2019-02-27T10:47:23.315Z,998.30
2019-02-27T10:48:21.219Z,998.33
2019-02-27T10:49:27.524Z,998.31
2019-02-27T10:50:27.041Z,998.26
2019-02-27T10:51:24.737Z,998.29
2019-02-27T10:52:24.316Z,998.29
2019-02-27T10:53:27.201Z,998.22
2019-02-27T10:54:21.880Z,998.21
2019-02-27T10:55:22.182Z,998.21
2019-02-27T10:56:36.085Z,998.20
2019-02-27T10:57:21.197Z,998.16
2019-02-27T10:58:21.675Z,998.15
2019-02-27T10:59:22.201Z,998.11
2019-02-27T11:00:24.903Z,998.19
2019-02-27T11:01:21.164Z,998.17
2019-02-27T11:02:23.470Z,998.12
2019-02-27T11:03:23.695Z,998.07
2019-02-27T11:04:21.099Z,998.05
2019-02-27T11:05:21.840Z,998.02
2019-02-27T11:06:42.055Z,998.02
2019-02-27T11:07:42.304Z,997.96
2019-02-27T11:08:23.820Z,997.87
2019-02-27T11:09:23.879Z,997.81
2019-02-27T11:10:23.979Z,997.86
2019-02-27T11:11:22.431Z,997.82
2019-02-27T11:12:21.317Z,997.82
2019-02-27T11:13:21.813Z,997.80
2019-02-27T11:14:23.735Z,997.81
2019-02-27T11:15:20.938Z,997.81
2019-02-27T11:16:21.423Z,997.78
2019-02-27T11:17:22.031Z,997.82
2019-02-27T11:18:36.687Z,997.80
2019-02-27T11:19:23.090Z,997.76
2019-02-27T11:21:48.321Z,997.74
2019-02-27T11:22:44.359Z,997.74
2019-02-27T11:23:41.990Z,997.72
2019-02-27T11:24:41.973Z,997.71
2019-02-27T11:25:41.831Z,997.68
2019-02-27T11:26:41.906Z,997.66
2019-02-27T11:29:42.140Z,997.59
2019-02-27T11:30:42.233Z,997.52
2019-02-27T11:31:42.291Z,997.48
2019-02-27T11:33:04.434Z,997.45
2019-02-27T11:35:14.397Z,997.38
2019-02-27T11:36:19.400Z,997.32
2019-02-27T11:37:16.409Z,997.29
2019-02-27T11:38:35.484Z,997.29
2019-02-27T11:39:14.360Z,997.28
2019-02-27T11:40:14.545Z,997.33
2019-02-27T11:41:18.893Z,997.31
2019-02-27T11:42:14.833Z,997.18
2019-02-27T11:43:14.620Z,997.19
2019-02-27T11:44:15.954Z,997.19
2019-02-27T11:45:14.962Z,997.14
2019-02-27T11:46:17.978Z,997.13
2019-02-27T11:47:16.813Z,997.10
2019-02-27T11:48:14.141Z,997.09
2019-02-27T11:49:18.786Z,997.06
2019-02-27T11:50:17.994Z,997.03
2019-02-27T11:51:14.290Z,996.99
2019-02-27T11:52:18.125Z,996.98
2019-02-27T11:54:35.057Z,996.89
2019-02-27T11:55:34.567Z,996.88
2019-02-27T11:57:30.538Z,996.81
2019-02-27T11:58:29.469Z,996.73
2019-02-27T12:00:28.757Z,996.67
2019-02-27T12:01:25.989Z,996.67
2019-02-27T12:02:28.726Z,996.64
2019-02-27T12:03:24.040Z,996.59
2019-02-27T12:04:21.727Z,996.57
2019-02-27T12:05:21.202Z,996.50
2019-02-27T12:06:21.522Z,996.49
2019-02-27T12:07:23.014Z,996.48
2019-02-27T12:08:25.882Z,996.46
2019-02-27T12:09:21.041Z,996.39
2019-02-27T12:10:23.721Z,996.38
2019-02-27T12:12:23.401Z,996.29
2019-02-27T12:13:21.743Z,996.29
2019-02-27T12:14:21.006Z,996.29
2019-02-27T12:15:21.945Z,996.19
2019-02-27T12:16:27.905Z,996.19
2019-02-27T12:17:23.243Z,996.16
2019-02-27T12:18:21.174Z,996.13
2019-02-27T12:19:21.159Z,996.08
2019-02-27T12:20:44.007Z,996.04
2019-02-27T12:21:25.460Z,996.03
2019-02-27T12:22:21.194Z,996.03
2019-02-27T12:24:29.342Z,996.03
2019-02-27T12:26:14.666Z,995.97
2019-02-27T12:27:23.227Z,995.91
2019-02-27T12:28:17.347Z,995.85
2019-02-27T12:30:24.380Z,995.72
2019-02-27T12:31:18.409Z,995.76
2019-02-27T12:32:19.226Z,995.73
2019-02-27T12:33:14.298Z,995.69
2019-02-27T12:34:13.793Z,995.72
2019-02-27T12:35:15.796Z,995.71
2019-02-27T12:36:18.668Z,995.68
2019-02-27T12:37:27.703Z,995.69
2019-02-27T12:38:14.357Z,995.70
2019-02-27T12:39:16.068Z,995.70
2019-02-27T12:40:15.403Z,995.65
2019-02-27T12:41:15.941Z,995.65
2019-02-27T12:42:36.908Z,995.70
2019-02-27T12:44:18.698Z,995.62
2019-02-27T12:45:35.263Z,995.63
2019-02-27T12:47:37.712Z,995.59
2019-02-27T12:48:35.170Z,995.60
2019-02-27T12:49:34.531Z,995.59
2019-02-27T12:50:35.141Z,995.54
2019-02-27T12:51:38.006Z,995.50
2019-02-27T12:52:35.431Z,995.51
2019-02-27T12:53:35.221Z,995.42